createdAt,value
2018-07-15T00:00:25.924Z,5.67
2018-07-15T00:02:54.784Z,5.57
2018-07-15T00:05:23.565Z,6.23
2018-07-15T00:07:52.373Z,5.20
2018-07-15T00:10:24.366Z,5.67
2018-07-15T00:12:53.033Z,6.50
2018-07-15T00:15:21.813Z,5.90
2018-07-15T00:17:50.583Z,5.53
2018-07-15T00:20:19.533Z,5.90
2018-07-15T00:23:06.206Z,5.27
2018-07-15T00:25:34.991Z,6.50
2018-07-15T00:28:03.926Z,5.67
2018-07-15T00:30:32.793Z,5.90
2018-07-15T00:33:01.703Z,6.17
2018-07-15T00:35:30.729Z,5.50
2018-07-15T00:37:59.617Z,6.03
2018-07-15T00:40:28.466Z,6.87
2018-07-15T00:42:57.402Z,5.80
2018-07-15T00:45:25.989Z,5.93
2018-07-15T00:47:54.699Z,6.90
2018-07-15T00:50:23.551Z,6.27
2018-07-15T00:52:52.436Z,5.37
2018-07-15T00:55:21.280Z,5.53
2018-07-15T00:57:49.994Z,6.87
2018-07-15T01:00:24.012Z,7.80
2018-07-15T01:02:52.725Z,5.27
2018-07-15T01:05:21.557Z,7.30
2018-07-15T01:07:50.342Z,11.30
2018-07-15T01:10:19.162Z,6.13
2018-07-15T01:12:48.058Z,6.13
2018-07-15T01:15:16.890Z,7.80
2018-07-15T01:17:45.729Z,5.60
2018-07-15T01:20:14.605Z,6.03
2018-07-15T01:22:43.370Z,6.30
2018-07-15T01:25:12.325Z,6.07
2018-07-15T01:27:41.118Z,6.40
2018-07-15T01:30:09.971Z,6.27
2018-07-15T01:32:43.313Z,6.47
2018-07-15T01:35:12.081Z,6.47
2018-07-15T01:37:40.837Z,6.50
2018-07-15T01:40:09.558Z,6.60
2018-07-15T01:42:38.290Z,6.40
2018-07-15T01:45:07.138Z,7.10
2018-07-15T01:47:35.925Z,5.43
2018-07-15T01:50:05.021Z,5.50
2018-07-15T01:52:34.009Z,6.27
2018-07-15T01:55:07.309Z,6.07
2018-07-15T01:57:36.118Z,8.63
2018-07-15T02:00:05.129Z,6.20
2018-07-15T02:02:33.897Z,6.20
2018-07-15T02:05:02.883Z,5.87
2018-07-15T02:07:31.674Z,8.90
2018-07-15T02:10:00.526Z,6.70
2018-07-15T02:12:29.221Z,6.87
2018-07-15T02:14:58.045Z,6.63
2018-07-15T02:17:32.792Z,6.33
2018-07-15T02:20:01.631Z,7.00
2018-07-15T02:22:33.607Z,6.17
2018-07-15T02:25:19.335Z,7.20
2018-07-15T02:27:51.710Z,6.57
2018-07-15T02:30:20.853Z,5.83
2018-07-15T02:32:49.614Z,5.70
2018-07-15T02:35:18.501Z,6.60
2018-07-15T02:37:47.289Z,6.40
2018-07-15T02:40:16.083Z,7.03
2018-07-15T02:42:45.006Z,6.97
2018-07-15T02:45:13.883Z,7.97
2018-07-15T02:47:42.774Z,6.33
2018-07-15T02:50:11.594Z,9.57
2018-07-15T02:52:44.410Z,7.30
2018-07-15T02:55:13.254Z,5.90
2018-07-15T02:57:42.041Z,7.30
2018-07-15T03:00:10.775Z,5.60
2018-07-15T03:02:39.581Z,6.70
2018-07-15T03:05:08.354Z,6.17
2018-07-15T03:07:37.409Z,6.40
2018-07-15T03:10:18.578Z,6.40
2018-07-15T03:12:47.385Z,5.97
2018-07-15T03:15:16.230Z,7.67
2018-07-15T03:17:44.973Z,7.60
2018-07-15T03:20:13.779Z,6.53
2018-07-15T03:22:42.590Z,6.10
2018-07-15T03:25:11.386Z,7.50
2018-07-15T03:27:40.266Z,6.93
2018-07-15T03:30:09.121Z,7.13
2018-07-15T03:32:37.838Z,5.97
2018-07-15T03:35:06.686Z,6.53
2018-07-15T03:37:35.529Z,6.47
2018-07-15T03:40:04.226Z,6.70
2018-07-15T03:42:32.945Z,6.57
2018-07-15T03:45:01.937Z,6.07
2018-07-15T03:47:30.881Z,5.53
2018-07-15T03:49:59.629Z,5.80
2018-07-15T03:52:28.438Z,5.97
2018-07-15T03:54:57.241Z,5.93
2018-07-15T03:57:26.018Z,6.30
2018-07-15T03:59:54.839Z,6.30
2018-07-15T04:02:23.610Z,6.90
2018-07-15T04:04:52.424Z,7.40
2018-07-15T04:07:24.904Z,6.77
2018-07-15T04:09:53.837Z,7.20
2018-07-15T04:12:22.649Z,6.60
2018-07-15T04:14:51.449Z,6.70
2018-07-15T04:17:20.238Z,6.93
2018-07-15T04:19:48.981Z,7.00
2018-07-15T04:22:17.842Z,7.63
2018-07-15T04:24:46.658Z,6.80
2018-07-15T04:27:24.049Z,6.93
2018-07-15T04:29:52.750Z,5.30
2018-07-15T04:32:21.461Z,6.27
2018-07-15T04:34:50.193Z,6.80
2018-07-15T04:37:19.042Z,7.00
2018-07-15T04:39:47.766Z,7.13
2018-07-15T04:42:16.618Z,6.47
2018-07-15T04:44:45.330Z,6.73
2018-07-15T04:47:14.069Z,6.27
2018-07-15T04:49:42.832Z,5.37
2018-07-15T04:52:11.565Z,8.00
2018-07-15T04:54:40.443Z,5.90
2018-07-15T04:57:09.184Z,6.67
2018-07-15T04:59:38.057Z,8.20
2018-07-15T05:02:06.990Z,8.53
2018-07-15T05:04:35.670Z,7.30
2018-07-15T05:07:04.513Z,7.97
2018-07-15T05:09:33.217Z,7.10
2018-07-15T05:12:02.001Z,7.03
2018-07-15T05:14:30.805Z,7.00
2018-07-15T05:16:59.842Z,7.30
2018-07-15T05:19:28.689Z,6.60
2018-07-15T05:21:57.403Z,8.20
2018-07-15T05:24:26.197Z,7.53
2018-07-15T05:26:54.993Z,6.90
2018-07-15T05:29:23.885Z,7.60
2018-07-15T05:31:52.645Z,6.17
2018-07-15T05:34:25.401Z,6.47
2018-07-15T05:36:54.296Z,6.30
2018-07-15T05:39:23.122Z,7.57
2018-07-15T05:41:51.948Z,6.60
2018-07-15T05:44:20.752Z,7.33
2018-07-15T05:46:49.526Z,5.73
2018-07-15T05:49:18.334Z,6.70
2018-07-15T05:51:47.329Z,6.40
2018-07-15T05:54:16.077Z,5.60
2018-07-15T05:56:49.009Z,6.07
2018-07-15T05:59:17.775Z,5.87
2018-07-15T06:01:46.482Z,6.67
2018-07-15T06:04:15.589Z,6.03
2018-07-15T06:06:44.341Z,7.77
2018-07-15T06:09:12.940Z,5.90
2018-07-15T06:11:41.753Z,9.07
2018-07-15T06:14:10.577Z,6.63
2018-07-15T06:16:39.406Z,6.40
2018-07-15T06:21:43.298Z,6.87
2018-07-15T06:24:12.249Z,6.20
2018-07-15T06:26:41.106Z,6.30
2018-07-15T06:29:09.802Z,5.80
2018-07-15T06:31:38.569Z,6.53
2018-07-15T06:34:07.466Z,6.10
2018-07-15T06:36:36.576Z,6.30
2018-07-15T06:39:06.289Z,8.13
2018-07-15T06:41:37.069Z,9.37
2018-07-15T06:44:06.046Z,7.27
2018-07-15T06:46:34.815Z,6.73
2018-07-15T06:49:03.736Z,6.50
2018-07-15T06:51:32.609Z,7.03
2018-07-15T06:54:01.418Z,5.97
2018-07-15T06:56:30.381Z,7.00
2018-07-15T06:58:59.270Z,7.00
2018-07-15T07:01:28.006Z,6.53
2018-07-15T07:03:57.062Z,6.33
2018-07-15T07:06:25.805Z,6.83
2018-07-15T07:08:54.727Z,6.27
2018-07-15T07:11:23.834Z,6.03
2018-07-15T07:13:53.801Z,6.07
2018-07-15T07:16:22.505Z,6.90
2018-07-15T07:18:51.290Z,8.47
2018-07-15T07:21:20.161Z,5.93
2018-07-15T07:23:48.997Z,6.23
2018-07-15T07:26:17.936Z,7.80
2018-07-15T07:28:51.734Z,6.63
2018-07-15T07:31:20.515Z,6.30
2018-07-15T07:33:49.338Z,5.83
2018-07-15T07:36:18.201Z,7.23
2018-07-15T07:38:47.038Z,7.47
2018-07-15T07:41:15.822Z,5.93
2018-07-15T07:43:44.553Z,5.17
2018-07-15T07:46:13.404Z,6.67
2018-07-15T07:48:42.125Z,5.40
2018-07-15T07:51:10.873Z,5.67
2018-07-15T07:53:39.666Z,6.07
2018-07-15T07:56:08.557Z,6.33
2018-07-15T07:58:39.653Z,5.67
2018-07-15T08:01:08.529Z,6.37
2018-07-15T08:03:37.325Z,6.20
2018-07-15T08:06:06.281Z,5.33
2018-07-15T08:08:35.185Z,6.43
2018-07-15T08:11:21.458Z,5.30
2018-07-15T08:13:50.364Z,8.60
2018-07-15T08:16:19.162Z,5.67
2018-07-15T08:18:53.001Z,5.70
2018-07-15T08:21:21.886Z,5.97
2018-07-15T08:23:54.657Z,5.90
2018-07-15T08:26:23.503Z,5.10
2018-07-15T08:28:52.241Z,6.03
2018-07-15T08:31:23.341Z,5.97
2018-07-15T08:33:52.219Z,5.30
2018-07-15T08:36:27.721Z,7.57
2018-07-15T08:38:56.506Z,5.93
2018-07-15T08:41:25.370Z,5.70
2018-07-15T08:43:54.194Z,6.00
2018-07-15T08:46:22.984Z,6.17
2018-07-15T08:48:51.925Z,6.23
2018-07-15T08:51:26.813Z,6.00
2018-07-15T08:53:55.908Z,6.30
2018-07-15T08:56:24.737Z,5.90
2018-07-15T08:58:53.449Z,5.57
2018-07-15T09:01:22.551Z,6.63
2018-07-15T09:03:51.289Z,7.27
2018-07-15T09:06:20.090Z,7.23
2018-07-15T09:08:52.016Z,5.50
2018-07-15T09:11:20.898Z,6.27
2018-07-15T09:13:49.642Z,5.53
2018-07-15T09:16:18.589Z,5.17
2018-07-15T09:18:47.388Z,4.30
2018-07-15T09:21:16.240Z,5.13
2018-07-15T09:23:45.158Z,4.43
2018-07-15T09:26:14.110Z,8.43
2018-07-15T09:28:42.983Z,6.80
2018-07-15T09:31:11.862Z,5.07
2018-07-15T09:33:40.706Z,5.90
2018-07-15T09:36:09.560Z,4.83
2018-07-15T09:38:40.541Z,4.10
2018-07-15T09:41:09.212Z,4.00
2018-07-15T09:43:38.469Z,3.77
2018-07-15T09:46:07.365Z,4.93
2018-07-15T09:48:40.233Z,3.83
2018-07-15T09:51:09.205Z,4.30
2018-07-15T09:53:37.982Z,4.23
2018-07-15T09:56:06.813Z,3.70
2018-07-15T09:58:35.813Z,3.13
2018-07-15T10:01:04.572Z,3.03
2018-07-15T10:03:33.374Z,2.80
2018-07-15T10:06:09.789Z,2.70
2018-07-15T10:08:38.573Z,2.37
2018-07-15T10:11:07.361Z,5.20
2018-07-15T10:13:36.092Z,2.20
2018-07-15T10:16:11.189Z,2.53
2018-07-15T10:18:39.982Z,2.87
2018-07-15T10:21:08.759Z,2.20
2018-07-15T10:23:37.546Z,2.30
2018-07-15T10:26:06.360Z,3.53
2018-07-15T10:28:35.367Z,2.97
2018-07-15T10:31:04.141Z,2.60
2018-07-15T10:33:33.076Z,2.10
2018-07-15T10:36:02.982Z,2.83
2018-07-15T10:38:31.779Z,2.20
2018-07-15T10:41:00.682Z,2.63
2018-07-15T10:43:29.461Z,3.20
2018-07-15T10:45:58.286Z,2.20
2018-07-15T10:48:27.157Z,2.00
2018-07-15T10:50:56.000Z,2.20
2018-07-15T10:53:24.833Z,1.80
2018-07-15T10:55:53.665Z,2.13
2018-07-15T10:58:22.438Z,2.10
2018-07-15T11:00:51.204Z,1.80
2018-07-15T11:03:19.985Z,1.60
2018-07-15T11:05:48.813Z,2.43
2018-07-15T11:08:17.609Z,1.90
2018-07-15T11:10:46.531Z,2.00
2018-07-15T11:13:15.344Z,2.50
2018-07-15T11:15:44.137Z,2.70
2018-07-15T11:18:12.906Z,2.27
2018-07-15T11:20:41.729Z,4.83
2018-07-15T11:23:10.529Z,3.43
2018-07-15T11:25:39.307Z,2.50
2018-07-15T11:28:11.969Z,3.30
2018-07-15T11:30:42.805Z,2.10
2018-07-15T11:33:15.101Z,2.17
2018-07-15T11:35:43.874Z,2.17
2018-07-15T11:38:12.686Z,2.00
2018-07-15T11:40:41.502Z,2.10
2018-07-15T11:43:10.306Z,2.07
2018-07-15T11:45:45.748Z,2.00
2018-07-15T11:48:14.579Z,1.87
2018-07-15T11:50:43.345Z,2.00
2018-07-15T11:53:12.169Z,2.50
2018-07-15T11:55:40.929Z,2.67
2018-07-15T11:58:09.775Z,2.00
2018-07-15T12:00:38.569Z,1.70
2018-07-15T12:03:07.328Z,1.83
2018-07-15T12:05:36.183Z,3.03
2018-07-15T12:08:05.402Z,2.27
2018-07-15T12:10:34.256Z,1.40
2018-07-15T12:13:03.061Z,3.57
2018-07-15T12:15:32.808Z,1.93
2018-07-15T12:18:01.331Z,1.80
2018-07-15T12:20:30.105Z,2.37
2018-07-15T12:22:58.842Z,1.80
2018-07-15T12:25:27.637Z,2.50
2018-07-15T12:28:07.368Z,2.13
2018-07-15T12:30:36.170Z,2.40
2018-07-15T12:33:05.317Z,2.23
2018-07-15T12:35:34.081Z,2.47
2018-07-15T12:38:02.918Z,2.00
2018-07-15T12:40:31.802Z,2.87
2018-07-15T12:43:00.677Z,2.20
2018-07-15T12:45:29.538Z,2.10
2018-07-15T12:47:58.269Z,2.23
2018-07-15T12:50:27.162Z,2.13
2018-07-15T12:52:56.931Z,2.07
2018-07-15T12:55:25.805Z,1.70
2018-07-15T12:57:54.565Z,2.00
2018-07-15T13:00:23.297Z,1.67
2018-07-15T13:02:52.122Z,2.13
2018-07-15T13:05:20.933Z,2.33
2018-07-15T13:07:49.757Z,2.00
2018-07-15T13:10:18.540Z,3.20
2018-07-15T13:12:47.345Z,2.03
2018-07-15T13:15:16.113Z,3.07
2018-07-15T13:17:44.953Z,2.37
2018-07-15T13:20:13.825Z,2.87
2018-07-15T13:22:42.581Z,5.70
2018-07-15T13:25:11.281Z,2.27
2018-07-15T13:27:40.030Z,4.67
2018-07-15T13:30:08.879Z,2.00
2018-07-15T13:32:37.642Z,2.10
2018-07-15T13:35:06.362Z,1.67
2018-07-15T13:37:35.441Z,2.70
2018-07-15T13:40:04.230Z,1.93
2018-07-15T13:42:32.978Z,2.17
2018-07-15T13:45:01.977Z,2.37
2018-07-15T13:47:30.756Z,3.33
2018-07-15T13:49:59.489Z,4.77
2018-07-15T13:52:28.349Z,2.07
2018-07-15T13:54:56.904Z,1.70
2018-07-15T13:57:25.601Z,2.57
2018-07-15T13:59:54.457Z,2.57
2018-07-15T14:02:23.177Z,3.67
2018-07-15T14:04:53.198Z,1.90
2018-07-15T14:07:22.045Z,2.30
2018-07-15T14:09:50.781Z,1.73
2018-07-15T14:12:19.631Z,1.77
2018-07-15T14:14:48.493Z,1.87
2018-07-15T14:17:19.340Z,2.03
2018-07-15T14:19:48.057Z,1.77
2018-07-15T14:22:16.860Z,1.90
2018-07-15T14:24:45.678Z,2.27
2018-07-15T14:27:14.481Z,1.80
2018-07-15T14:29:43.353Z,1.60
2018-07-15T14:32:12.117Z,1.97
2018-07-15T14:34:40.922Z,2.00
2018-07-15T14:37:09.683Z,1.50
2018-07-15T14:39:40.497Z,1.80
2018-07-15T14:42:10.345Z,1.80
2018-07-15T14:44:39.897Z,1.53
2018-07-15T14:47:08.650Z,2.13
2018-07-15T14:49:37.378Z,1.73
2018-07-15T14:52:06.120Z,1.80
2018-07-15T14:54:34.969Z,4.60
2018-07-15T14:57:03.774Z,3.37
2018-07-15T14:59:32.766Z,2.80
2018-07-15T15:02:09.242Z,1.57
2018-07-15T15:04:38.065Z,1.70
2018-07-15T15:07:06.740Z,3.00
2018-07-15T15:09:35.523Z,2.07
2018-07-15T15:12:04.346Z,2.10
2018-07-15T15:14:33.229Z,1.90
2018-07-15T15:17:02.232Z,2.60
2018-07-15T15:19:31.136Z,2.07
2018-07-15T15:22:04.013Z,1.90
2018-07-15T15:24:32.877Z,1.90
2018-07-15T15:27:01.686Z,1.80
2018-07-15T15:29:30.529Z,1.80
2018-07-15T15:31:59.080Z,2.30
2018-07-15T15:34:27.857Z,1.90
2018-07-15T15:36:56.639Z,1.97
2018-07-15T15:39:25.503Z,1.97
2018-07-15T15:41:54.266Z,3.63
2018-07-15T15:44:23.194Z,1.90
2018-07-15T15:46:51.994Z,2.30
2018-07-15T15:49:20.706Z,2.00
2018-07-15T15:51:49.514Z,1.87
2018-07-15T15:54:18.369Z,2.97
2018-07-15T15:56:47.206Z,1.90
2018-07-15T15:59:15.949Z,2.23
2018-07-15T16:01:44.813Z,2.30
2018-07-15T16:04:15.750Z,2.27
2018-07-15T16:06:44.574Z,2.07
2018-07-15T16:09:13.357Z,2.30
2018-07-15T16:11:42.161Z,2.58
2018-07-15T16:14:10.986Z,2.10
2018-07-15T16:16:39.787Z,1.77
2018-07-15T16:19:08.605Z,3.60
2018-07-15T16:21:37.402Z,2.45
2018-07-15T16:24:06.502Z,2.05
2018-07-15T16:26:35.282Z,1.98
2018-07-15T16:29:04.065Z,2.83
2018-07-15T16:31:33.985Z,2.52
2018-07-15T16:34:02.887Z,2.20
2018-07-15T16:36:31.736Z,1.60
2018-07-15T16:39:00.525Z,2.10
2018-07-15T16:41:29.401Z,1.87
2018-07-15T16:43:58.264Z,1.90
2018-07-15T16:46:27.071Z,2.10
2018-07-15T16:48:55.988Z,1.92
2018-07-15T16:51:24.745Z,2.12
2018-07-15T16:53:53.511Z,2.10
2018-07-15T16:56:22.385Z,1.50
2018-07-15T16:58:51.199Z,2.47
2018-07-15T17:01:19.981Z,2.05
2018-07-15T17:06:23.949Z,2.25
2018-07-15T17:08:52.672Z,2.42
2018-07-15T17:11:21.414Z,1.80
2018-07-15T17:13:51.443Z,1.82
2018-07-15T17:16:20.264Z,2.08
2018-07-15T17:18:49.081Z,2.00
2018-07-15T17:21:18.048Z,2.02
2018-07-15T17:23:46.879Z,1.57
2018-07-15T17:26:15.829Z,1.80
2018-07-15T17:28:44.633Z,1.80
2018-07-15T17:31:17.625Z,2.77
2018-07-15T17:33:48.618Z,1.80
2018-07-15T17:36:17.930Z,1.80
2018-07-15T17:38:46.706Z,1.90
2018-07-15T17:41:20.421Z,1.97
2018-07-15T17:43:50.083Z,1.80
2018-07-15T17:46:19.110Z,1.60
2018-07-15T17:48:47.854Z,1.73
2018-07-15T17:51:16.727Z,2.93
2018-07-15T17:53:45.446Z,1.83
2018-07-15T17:56:14.345Z,2.03
2018-07-15T17:58:43.220Z,4.70
2018-07-15T18:01:13.092Z,2.70
2018-07-15T18:03:42.021Z,6.03
2018-07-15T18:06:10.848Z,4.63
2018-07-15T18:08:39.686Z,4.07
2018-07-15T18:11:08.497Z,9.20
2018-07-15T18:13:37.209Z,7.47
2018-07-15T18:16:06.028Z,4.60
2018-07-15T18:18:34.807Z,4.03
2018-07-15T18:21:05.682Z,4.40
2018-07-15T18:23:34.276Z,4.30
2018-07-15T18:26:03.169Z,5.87
2018-07-15T18:28:32.123Z,5.13
2018-07-15T18:31:00.864Z,3.77
2018-07-15T18:33:29.824Z,4.73
2018-07-15T18:35:58.570Z,4.43
2018-07-15T18:38:27.556Z,3.67
2018-07-15T18:40:56.281Z,7.50
2018-07-15T18:43:25.106Z,3.93
2018-07-15T18:45:53.893Z,4.23
2018-07-15T18:48:22.676Z,3.47
2018-07-15T18:50:51.437Z,4.37
2018-07-15T18:53:29.058Z,3.33
2018-07-15T18:56:05.499Z,4.30
2018-07-15T18:58:34.345Z,3.03
2018-07-15T19:01:04.098Z,3.10
2018-07-15T19:03:32.950Z,3.40
2018-07-15T19:06:01.788Z,3.33
2018-07-15T19:08:31.523Z,2.97
2018-07-15T19:11:00.357Z,2.67
2018-07-15T19:13:29.285Z,3.17
2018-07-15T19:15:57.833Z,2.83
2018-07-15T19:18:32.657Z,3.23
2018-07-15T19:21:01.554Z,3.30
2018-07-15T19:23:30.314Z,3.63
2018-07-15T19:25:59.187Z,4.37
2018-07-15T19:28:28.229Z,3.43
2018-07-15T19:30:56.982Z,3.73
2018-07-15T19:33:26.745Z,2.97
2018-07-15T19:35:55.300Z,4.33
2018-07-15T19:38:23.869Z,3.67
2018-07-15T19:40:53.089Z,3.30
2018-07-15T19:43:21.928Z,6.50
2018-07-15T19:45:50.763Z,5.27
2018-07-15T19:48:19.746Z,5.80
2018-07-15T19:50:48.583Z,4.20
2018-07-15T19:53:18.361Z,3.97
2018-07-15T19:55:47.122Z,3.60
2018-07-15T19:58:15.961Z,3.37
2018-07-15T20:00:44.813Z,4.17
2018-07-15T20:03:13.630Z,3.63
2018-07-15T20:05:42.605Z,3.30
2018-07-15T20:08:11.446Z,5.63
2018-07-15T20:10:40.346Z,3.77
2018-07-15T20:13:09.510Z,3.80
2018-07-15T20:15:40.317Z,3.90
2018-07-15T20:18:09.125Z,4.93
2018-07-15T20:20:37.988Z,4.20
2018-07-15T20:23:06.817Z,4.63
2018-07-15T20:25:35.619Z,3.60
2018-07-15T20:28:04.429Z,4.27
2018-07-15T20:30:33.298Z,4.07
2018-07-15T20:33:02.116Z,4.10
2018-07-15T20:35:30.915Z,3.80
2018-07-15T20:37:59.797Z,5.00
2018-07-15T20:40:28.773Z,5.57
2018-07-15T20:42:57.594Z,6.07
2018-07-15T20:45:26.384Z,6.03
2018-07-15T20:47:55.169Z,3.40
2018-07-15T20:50:23.937Z,4.57
2018-07-15T20:52:52.881Z,4.17
2018-07-15T20:55:21.875Z,3.97
2018-07-15T20:57:50.669Z,6.83
2018-07-15T21:00:19.525Z,5.07
2018-07-15T21:02:48.597Z,3.43
2018-07-15T21:05:17.426Z,5.33
2018-07-15T21:07:46.218Z,4.10
2018-07-15T21:10:15.097Z,3.87
2018-07-15T21:12:43.909Z,4.27
2018-07-15T21:15:12.749Z,4.87
2018-07-15T21:17:41.614Z,5.13
2018-07-15T21:20:10.430Z,4.00
2018-07-15T21:22:39.353Z,3.57
2018-07-15T21:25:08.209Z,4.07
2018-07-15T21:27:36.949Z,4.10
2018-07-15T21:30:05.985Z,3.60
2018-07-15T21:32:34.971Z,4.57
2018-07-15T21:35:03.737Z,7.40
2018-07-15T21:37:32.540Z,5.43
2018-07-15T21:40:01.451Z,4.23
2018-07-15T21:42:30.386Z,3.60
2018-07-15T21:44:59.198Z,4.40
2018-07-15T21:47:28.089Z,4.90
2018-07-15T21:49:56.805Z,4.20
2018-07-15T21:52:25.625Z,3.63
2018-07-15T21:54:54.397Z,5.03
2018-07-15T21:57:23.484Z,4.33
2018-07-15T21:59:52.257Z,3.90
2018-07-15T22:02:21.138Z,4.17
2018-07-15T22:04:57.057Z,4.40
2018-07-15T22:07:37.393Z,4.00
2018-07-15T22:10:20.568Z,4.33
2018-07-15T22:12:49.437Z,4.07
2018-07-15T22:15:18.243Z,4.40
2018-07-15T22:17:47.069Z,4.07
2018-07-15T22:20:15.873Z,4.00
2018-07-15T22:22:44.725Z,4.37
2018-07-15T22:25:13.584Z,4.83
2018-07-15T22:27:42.380Z,4.20
2018-07-15T22:30:11.270Z,4.50
2018-07-15T22:32:40.134Z,3.93
2018-07-15T22:35:08.945Z,4.07
2018-07-15T22:37:37.881Z,5.10
2018-07-15T22:40:06.673Z,6.60
2018-07-15T22:42:35.570Z,4.30
2018-07-15T22:45:04.603Z,4.30
2018-07-15T22:47:33.427Z,4.87
2018-07-15T22:50:02.305Z,4.43
2018-07-15T22:52:31.430Z,4.60
2018-07-15T22:55:00.269Z,5.00
2018-07-15T22:57:35.253Z,4.40
2018-07-15T23:00:04.786Z,4.23
2018-07-15T23:02:33.569Z,4.43
2018-07-15T23:05:40.021Z,4.10
2018-07-15T23:08:09.173Z,7.33
2018-07-15T23:10:38.003Z,5.90
2018-07-15T23:13:07.898Z,4.77
2018-07-15T23:15:37.040Z,4.20
2018-07-15T23:18:07.841Z,5.33
2018-07-15T23:20:37.378Z,4.30
2018-07-15T23:23:07.009Z,4.73
2018-07-15T23:25:35.930Z,4.40
2018-07-15T23:28:09.712Z,4.17
2018-07-15T23:30:39.261Z,4.80
2018-07-15T23:33:08.362Z,4.33
2018-07-15T23:35:37.165Z,5.27
2018-07-15T23:38:06.030Z,4.60
2018-07-15T23:40:34.813Z,4.13
2018-07-15T23:43:03.859Z,5.83
2018-07-15T23:45:33.529Z,4.97
2018-07-15T23:48:02.297Z,5.77
2018-07-15T23:50:31.085Z,5.83
2018-07-15T23:52:59.892Z,5.27
2018-07-15T23:55:28.761Z,4.63
2018-07-15T23:57:57.613Z,4.47
